createdAt,value
2023-03-20T00:01:58.927Z,99.90
2023-03-20T00:04:29.667Z,99.90
2023-03-20T00:06:57.756Z,99.90
2023-03-20T00:09:26.622Z,99.90
2023-03-20T00:11:56.042Z,99.90
2023-03-20T00:14:25.035Z,99.90
2023-03-20T00:16:53.294Z,99.90
2023-03-20T00:19:24.164Z,99.90
2023-03-20T00:21:55.404Z,99.90
2023-03-20T00:24:23.797Z,99.90
2023-03-20T00:26:53.254Z,99.90
2023-03-20T00:29:24.194Z,99.90
2023-03-20T00:31:52.400Z,99.90
2023-03-20T00:34:23.604Z,99.90
2023-03-20T00:36:53.303Z,99.90
2023-03-20T00:39:21.989Z,99.90
2023-03-20T00:41:52.189Z,99.90
2023-03-20T00:44:25.526Z,99.90
2023-03-20T00:46:56.412Z,99.90
2023-03-20T00:49:27.984Z,99.90
2023-03-20T00:51:58.089Z,99.90
2023-03-20T00:54:26.431Z,99.90
2023-03-20T00:56:59.040Z,99.90
2023-03-20T00:59:31.365Z,99.90
2023-03-20T01:02:00.584Z,99.90
2023-03-20T01:04:36.529Z,99.90
2023-03-20T01:07:07.925Z,99.90
2023-03-20T01:09:36.725Z,99.90
2023-03-20T01:12:05.776Z,99.90
2023-03-20T01:14:33.764Z,99.90
2023-03-20T01:17:01.701Z,99.90
2023-03-20T01:19:29.610Z,99.90
2023-03-20T01:21:57.797Z,99.90
2023-03-20T01:24:27.220Z,99.90
2023-03-20T01:26:55.117Z,99.90
2023-03-20T01:29:27.140Z,99.90
2023-03-20T01:31:55.801Z,99.90
2023-03-20T01:34:27.778Z,99.90
2023-03-20T01:36:59.259Z,99.90
2023-03-20T01:39:33.900Z,99.90
2023-03-20T01:42:03.557Z,99.90
2023-03-20T01:44:34.435Z,99.90
2023-03-20T01:47:03.988Z,99.90
2023-03-20T01:50:09.502Z,99.90
2023-03-20T01:52:37.739Z,99.90
2023-03-20T01:55:08.028Z,99.90
2023-03-20T01:57:38.197Z,99.90
2023-03-20T02:00:11.781Z,99.90
2023-03-20T02:02:48.658Z,99.90
2023-03-20T02:05:38.654Z,99.90
2023-03-20T02:08:28.040Z,99.90
2023-03-20T02:11:01.454Z,99.90
2023-03-20T02:13:32.899Z,99.90
2023-03-20T02:16:05.047Z,99.90
2023-03-20T02:18:52.054Z,99.90
2023-03-20T02:21:47.758Z,99.90
2023-03-20T02:24:56.002Z,99.90
2023-03-20T02:27:37.433Z,99.90
2023-03-20T02:30:44.271Z,99.90
2023-03-20T02:34:07.274Z,99.90
2023-03-20T02:37:07.594Z,99.90
2023-03-20T02:39:58.976Z,99.90
2023-03-20T02:42:36.218Z,99.90
2023-03-20T02:45:13.117Z,99.90
2023-03-20T02:47:48.883Z,99.90
2023-03-20T02:50:30.217Z,99.90
2023-03-20T02:53:09.469Z,99.90
2023-03-20T02:55:44.752Z,99.90
2023-03-20T02:58:16.856Z,99.90
2023-03-20T03:00:50.957Z,99.90
2023-03-20T03:03:22.757Z,99.90
2023-03-20T03:05:56.766Z,99.90
2023-03-20T03:08:29.716Z,99.90
2023-03-20T03:11:04.335Z,99.90
2023-03-20T03:13:35.196Z,99.90
2023-03-20T03:16:08.129Z,99.90
2023-03-20T03:18:38.631Z,99.90
2023-03-20T03:21:08.925Z,99.90
2023-03-20T03:23:44.595Z,99.90
2023-03-20T03:26:18.896Z,99.90
2023-03-20T03:28:49.830Z,99.90
2023-03-20T03:31:19.573Z,99.90
2023-03-20T03:33:51.085Z,99.90
2023-03-20T03:36:29.233Z,99.90
2023-03-20T03:39:00.805Z,99.90
2023-03-20T03:41:34.827Z,99.90
2023-03-20T03:44:10.819Z,99.90
2023-03-20T03:46:44.770Z,99.90
2023-03-20T03:49:18.217Z,99.90
2023-03-20T03:51:49.806Z,99.90
2023-03-20T03:54:21.771Z,99.90
2023-03-20T03:57:14.418Z,99.90
2023-03-20T03:59:45.612Z,99.90
2023-03-20T04:02:14.702Z,99.90
2023-03-20T04:04:47.201Z,99.90
2023-03-20T04:07:16.162Z,99.90
2023-03-20T04:09:44.145Z,99.90
2023-03-20T04:12:34.649Z,99.90
2023-03-20T04:15:03.587Z,99.90
2023-03-20T04:17:34.182Z,99.90
2023-03-20T04:20:03.004Z,99.90
2023-03-20T04:22:31.222Z,99.90
2023-03-20T04:25:08.023Z,99.90
2023-03-20T04:27:37.977Z,99.90
2023-03-20T04:30:13.555Z,99.90
2023-03-20T04:33:13.850Z,99.90
2023-03-20T04:36:06.254Z,99.90
2023-03-20T04:38:34.206Z,99.90
2023-03-20T04:41:03.980Z,99.90
2023-03-20T04:43:33.397Z,99.90
2023-03-20T04:46:01.464Z,99.90
2023-03-20T04:48:29.882Z,99.90
2023-03-20T04:50:58.070Z,99.90
2023-03-20T04:53:41.054Z,99.90
2023-03-20T04:56:09.860Z,99.90
2023-03-20T04:58:39.603Z,99.90
2023-03-20T05:01:08.028Z,99.90
2023-03-20T05:03:36.003Z,99.90
2023-03-20T05:06:04.532Z,99.90
2023-03-20T05:08:33.364Z,99.90
2023-03-20T05:11:02.306Z,99.90
2023-03-20T05:13:55.217Z,99.90
2023-03-20T05:16:41.615Z,99.90
2023-03-20T05:19:25.027Z,99.90
2023-03-20T05:22:12.599Z,99.90
2023-03-20T05:25:01.024Z,99.90
2023-03-20T05:27:55.521Z,99.90
2023-03-20T05:30:27.426Z,99.90
2023-03-20T05:33:16.863Z,99.90
2023-03-20T05:36:07.442Z,99.90
2023-03-20T05:38:54.131Z,99.90
2023-03-20T05:41:34.119Z,99.90
2023-03-20T05:44:24.076Z,99.90
2023-03-20T05:47:13.596Z,99.90
2023-03-20T05:50:08.320Z,99.90
2023-03-20T05:53:02.311Z,99.90
2023-03-20T05:56:02.709Z,99.90
2023-03-20T05:58:49.287Z,99.90
2023-03-20T06:01:35.821Z,99.90
2023-03-20T06:04:23.051Z,99.90
2023-03-20T06:07:11.490Z,99.90
2023-03-20T06:09:42.522Z,99.90
2023-03-20T06:12:13.669Z,99.90
2023-03-20T06:14:42.052Z,99.90
2023-03-20T06:17:10.743Z,99.90
2023-03-20T06:19:40.374Z,99.90
2023-03-20T06:22:08.323Z,99.90
2023-03-20T06:24:36.616Z,99.90
2023-03-20T06:27:04.855Z,99.90
2023-03-20T06:29:33.360Z,99.90
2023-03-20T06:32:14.624Z,99.90
2023-03-20T06:34:44.115Z,99.90
2023-03-20T06:37:12.083Z,99.90
2023-03-20T06:39:40.328Z,99.90
2023-03-20T06:42:15.058Z,99.90
2023-03-20T06:44:44.995Z,99.90
2023-03-20T06:47:40.549Z,99.90
2023-03-20T06:50:26.424Z,99.90
2023-03-20T06:52:55.044Z,98.80
2023-03-20T06:55:48.705Z,92.50
2023-03-20T06:58:17.349Z,91.50
2023-03-20T07:00:47.466Z,87.60
2023-03-20T07:03:15.753Z,87.90
2023-03-20T07:06:00.975Z,87.80
2023-03-20T07:08:29.324Z,86.40
2023-03-20T07:10:57.413Z,87.50
2023-03-20T07:13:26.394Z,87.40
2023-03-20T07:16:05.165Z,88.00
2023-03-20T07:18:38.842Z,87.10
2023-03-20T07:21:09.058Z,88.00
2023-03-20T07:23:37.763Z,86.30
2023-03-20T07:26:06.692Z,85.00
2023-03-20T07:28:35.430Z,86.50
2023-03-20T07:31:21.103Z,84.10
2023-03-20T07:33:52.425Z,82.70
2023-03-20T07:36:21.994Z,81.00
2023-03-20T07:38:50.623Z,80.30
2023-03-20T07:41:20.086Z,78.40
2023-03-20T07:43:58.684Z,77.50
2023-03-20T07:46:47.074Z,77.30
2023-03-20T07:49:18.257Z,74.90
2023-03-20T07:51:49.662Z,72.00
2023-03-20T07:54:18.199Z,73.50
2023-03-20T07:56:46.495Z,71.40
2023-03-20T07:59:15.374Z,69.80
2023-03-20T08:01:43.452Z,70.00
2023-03-20T08:04:11.502Z,65.00
2023-03-20T08:06:40.501Z,64.60
2023-03-20T08:09:09.914Z,63.10
2023-03-20T08:11:38.008Z,60.30
2023-03-20T08:14:06.011Z,57.00
2023-03-20T08:16:34.118Z,55.80
2023-03-20T08:19:03.249Z,54.00
2023-03-20T08:21:32.446Z,51.20
2023-03-20T08:24:00.533Z,49.50
2023-03-20T08:26:29.919Z,48.90
2023-03-20T08:28:59.260Z,46.90
2023-03-20T08:31:27.425Z,45.80
2023-03-20T08:33:57.349Z,43.70
2023-03-20T08:36:25.773Z,43.20
2023-03-20T08:38:53.822Z,41.90
2023-03-20T08:41:21.933Z,42.10
2023-03-20T08:43:51.249Z,40.50
2023-03-20T08:46:19.315Z,39.10
2023-03-20T08:48:47.286Z,36.80
2023-03-20T08:51:15.237Z,35.70
2023-03-20T08:53:43.211Z,35.70
2023-03-20T08:56:12.057Z,34.10
2023-03-20T08:58:40.099Z,34.30
2023-03-20T09:01:10.892Z,32.90
2023-03-20T09:03:39.020Z,32.30
2023-03-20T09:06:08.260Z,30.30
2023-03-20T09:08:36.449Z,30.00
2023-03-20T09:11:06.884Z,29.20
2023-03-20T09:13:34.971Z,29.80
2023-03-20T09:16:03.523Z,28.70
2023-03-20T09:18:33.241Z,28.00
2023-03-20T09:21:01.193Z,27.20
2023-03-20T09:23:29.094Z,26.70
2023-03-20T09:25:57.186Z,26.70
2023-03-20T09:28:25.154Z,27.50
2023-03-20T09:30:57.209Z,27.10
2023-03-20T09:33:25.870Z,26.90
2023-03-20T09:35:55.327Z,27.10
2023-03-20T09:38:24.398Z,28.00
2023-03-20T09:40:55.108Z,28.50
2023-03-20T09:43:37.330Z,28.30
2023-03-20T09:46:18.698Z,28.50
2023-03-20T09:48:54.642Z,28.70
2023-03-20T09:51:32.835Z,28.40
2023-03-20T09:54:07.274Z,28.10
2023-03-20T09:56:35.738Z,28.10
2023-03-20T09:59:06.501Z,28.10
2023-03-20T10:01:40.119Z,28.00
2023-03-20T10:04:10.201Z,27.60
2023-03-20T10:06:39.681Z,27.70
2023-03-20T10:09:18.009Z,28.50
2023-03-20T10:11:58.893Z,27.40
2023-03-20T10:14:35.107Z,27.80
2023-03-20T10:17:14.772Z,26.90
2023-03-20T10:19:47.280Z,26.50
2023-03-20T10:22:25.359Z,25.90
2023-03-20T10:24:59.011Z,24.50
2023-03-20T10:27:32.577Z,23.40
2023-03-20T10:30:17.322Z,22.80
2023-03-20T10:32:55.947Z,23.30
2023-03-20T10:35:29.722Z,23.20
2023-03-20T10:38:11.319Z,22.70
2023-03-20T10:40:41.686Z,23.20
2023-03-20T10:43:16.759Z,24.50
2023-03-20T10:45:48.224Z,25.30
2023-03-20T10:48:21.907Z,26.20
2023-03-20T10:50:54.075Z,27.10
2023-03-20T10:53:29.617Z,27.50
2023-03-20T10:56:01.516Z,27.30
2023-03-20T10:58:32.810Z,26.30
2023-03-20T11:01:01.105Z,27.40
2023-03-20T11:03:31.724Z,26.00
2023-03-20T11:06:09.651Z,26.20
2023-03-20T11:08:42.818Z,25.00
2023-03-20T11:11:11.635Z,26.70
2023-03-20T11:13:42.318Z,26.60
2023-03-20T11:16:18.878Z,25.60
2023-03-20T11:18:49.209Z,24.20
2023-03-20T11:21:21.147Z,24.20
2023-03-20T11:23:51.401Z,24.20
2023-03-20T11:26:21.214Z,22.50
2023-03-20T11:28:52.726Z,21.10
2023-03-20T11:31:26.911Z,21.80
2023-03-20T11:34:09.996Z,22.30
2023-03-20T11:36:41.179Z,23.40
2023-03-20T11:39:15.214Z,23.90
2023-03-20T11:41:48.481Z,25.40
2023-03-20T11:44:24.969Z,25.50
2023-03-20T11:47:01.680Z,25.30
2023-03-20T11:49:30.172Z,25.20
2023-03-20T11:52:02.510Z,25.60
2023-03-20T11:54:32.025Z,25.90
2023-03-20T11:57:01.355Z,26.30
2023-03-20T11:59:33.933Z,25.00
2023-03-20T12:02:04.639Z,24.70
2023-03-20T12:04:34.575Z,26.00
2023-03-20T12:07:06.822Z,24.70
2023-03-20T12:09:43.473Z,24.50
2023-03-20T12:12:26.159Z,25.80
2023-03-20T12:14:59.475Z,25.60
2023-03-20T12:17:35.286Z,26.00
2023-03-20T12:20:11.974Z,27.50
2023-03-20T12:22:51.012Z,26.80
2023-03-20T12:25:24.865Z,27.30
2023-03-20T12:27:59.023Z,27.70
2023-03-20T12:30:34.134Z,27.40
2023-03-20T12:33:08.213Z,26.80
2023-03-20T12:35:41.907Z,26.90
2023-03-20T12:38:22.726Z,26.30
2023-03-20T12:40:56.878Z,24.80
2023-03-20T12:43:28.256Z,24.30
2023-03-20T12:46:08.054Z,23.80
2023-03-20T12:48:52.572Z,22.80
2023-03-20T12:51:30.774Z,24.40
2023-03-20T12:54:11.388Z,24.80
2023-03-20T12:57:03.511Z,25.20
2023-03-20T12:59:42.730Z,26.40
2023-03-20T13:02:23.497Z,26.20
2023-03-20T13:05:00.834Z,26.90
2023-03-20T13:07:46.272Z,28.00
2023-03-20T13:10:21.190Z,27.50
2023-03-20T13:13:01.772Z,27.90
2023-03-20T13:15:41.140Z,27.70
2023-03-20T13:18:16.786Z,28.90
2023-03-20T13:20:52.056Z,28.50
2023-03-20T13:23:24.437Z,29.30
2023-03-20T13:26:17.138Z,29.50
2023-03-20T13:28:54.961Z,29.70
2023-03-20T13:31:34.803Z,30.10
2023-03-20T13:34:12.334Z,31.00
2023-03-20T13:36:51.682Z,33.40
2023-03-20T13:39:23.644Z,34.40
2023-03-20T13:41:52.142Z,35.50
2023-03-20T13:44:23.985Z,36.80
2023-03-20T13:46:55.844Z,39.60
2023-03-20T13:49:31.555Z,41.10
2023-03-20T13:52:05.145Z,40.30
2023-03-20T13:54:47.766Z,42.00
2023-03-20T13:57:29.651Z,42.70
2023-03-20T14:00:11.782Z,41.70
2023-03-20T14:03:03.140Z,42.70
2023-03-20T14:05:36.517Z,46.40
2023-03-20T14:08:33.156Z,47.00
2023-03-20T14:11:32.730Z,49.10
2023-03-20T14:14:16.013Z,59.90
2023-03-20T14:16:45.944Z,67.40
2023-03-20T14:19:20.833Z,77.50
2023-03-20T14:21:51.994Z,92.20
2023-03-20T14:24:21.781Z,99.90
2023-03-20T14:26:51.049Z,96.50
2023-03-20T14:29:34.664Z,99.90
2023-03-20T14:32:32.236Z,99.90
2023-03-20T14:35:24.691Z,99.90
2023-03-20T14:38:10.722Z,99.90
2023-03-20T14:40:45.559Z,99.90
2023-03-20T14:43:21.880Z,99.90
2023-03-20T14:45:55.605Z,99.90
2023-03-20T14:48:32.584Z,99.90
2023-03-20T14:51:15.421Z,99.90
2023-03-20T14:53:43.465Z,99.90
2023-03-20T14:56:13.086Z,99.90
2023-03-20T14:58:56.544Z,99.90
2023-03-20T15:01:29.714Z,99.90
2023-03-20T15:04:03.155Z,99.90
2023-03-20T15:06:32.278Z,99.90
2023-03-20T15:09:04.954Z,99.90
2023-03-20T15:11:34.224Z,99.90
2023-03-20T15:14:05.409Z,99.90
2023-03-20T15:16:35.518Z,99.90
2023-03-20T15:19:08.101Z,99.90
2023-03-20T15:21:38.443Z,99.90
2023-03-20T15:24:06.917Z,99.90
2023-03-20T15:26:36.826Z,99.90
2023-03-20T15:29:07.433Z,99.90
2023-03-20T15:31:41.138Z,99.90
2023-03-20T15:34:24.021Z,99.90
2023-03-20T15:36:52.847Z,99.90
2023-03-20T15:39:23.372Z,99.90
2023-03-20T15:41:54.978Z,99.90
2023-03-20T15:44:25.688Z,99.90
2023-03-20T15:47:01.471Z,99.90
2023-03-20T15:49:33.386Z,99.90
2023-03-20T15:52:06.576Z,99.90
2023-03-20T15:54:37.410Z,99.90
2023-03-20T15:57:05.755Z,99.90
2023-03-20T15:59:35.399Z,99.90
2023-03-20T16:02:04.668Z,99.90
2023-03-20T16:04:34.165Z,99.90
2023-03-20T16:07:03.227Z,99.90
2023-03-20T16:09:31.418Z,99.90
2023-03-20T16:12:01.453Z,99.90
2023-03-20T16:14:32.947Z,99.90
2023-03-20T16:17:03.245Z,99.90
2023-03-20T16:19:33.304Z,99.90
2023-03-20T16:22:05.274Z,99.90
2023-03-20T16:24:38.710Z,99.90
2023-03-20T16:27:09.099Z,99.90
2023-03-20T16:29:38.520Z,99.90
2023-03-20T16:32:18.952Z,99.90
2023-03-20T16:34:52.252Z,99.90
2023-03-20T16:37:27.090Z,99.90
2023-03-20T16:40:13.770Z,99.90
2023-03-20T16:42:42.070Z,99.90
2023-03-20T16:45:26.355Z,99.90
2023-03-20T16:48:23.233Z,99.90
2023-03-20T16:50:57.854Z,99.90
2023-03-20T16:53:29.619Z,99.90
2023-03-20T16:55:59.122Z,99.90
2023-03-20T16:58:30.861Z,99.90
2023-03-20T17:01:02.199Z,99.90
2023-03-20T17:03:36.235Z,99.90
2023-03-20T17:06:10.934Z,99.90
2023-03-20T17:08:42.651Z,99.90
2023-03-20T17:11:14.548Z,99.90
2023-03-20T17:13:43.142Z,99.90
2023-03-20T17:16:16.763Z,99.90
2023-03-20T17:18:46.535Z,99.90
2023-03-20T17:21:16.293Z,99.90
2023-03-20T17:23:44.400Z,99.90
2023-03-20T17:26:13.142Z,99.90
2023-03-20T17:28:42.435Z,99.90
2023-03-20T17:31:13.830Z,99.90
2023-03-20T17:33:42.153Z,99.90
2023-03-20T17:36:25.509Z,99.90
2023-03-20T17:38:53.445Z,99.90
2023-03-20T17:41:22.782Z,99.90
2023-03-20T17:43:52.045Z,99.90
2023-03-20T17:46:21.113Z,99.90
2023-03-20T17:48:50.036Z,99.90
2023-03-20T17:51:19.507Z,99.90
2023-03-20T17:53:47.407Z,99.90
2023-03-20T17:56:17.363Z,99.90
2023-03-20T17:58:45.675Z,99.90
2023-03-20T18:01:34.131Z,99.90
2023-03-20T18:04:02.165Z,99.90
2023-03-20T18:06:36.987Z,99.90
2023-03-20T18:09:05.585Z,99.90
2023-03-20T18:11:33.566Z,99.90
2023-03-20T18:14:02.183Z,99.90
2023-03-20T18:16:30.171Z,99.90
2023-03-20T18:19:00.349Z,99.90
2023-03-20T18:21:28.828Z,99.90
2023-03-20T18:23:58.159Z,99.90
2023-03-20T18:26:27.790Z,99.90
2023-03-20T18:28:56.846Z,99.90
2023-03-20T18:31:24.859Z,99.90
2023-03-20T18:33:54.015Z,99.90
2023-03-20T18:36:24.272Z,99.90
2023-03-20T18:38:52.672Z,99.90
2023-03-20T18:41:22.145Z,99.90
2023-03-20T18:43:51.032Z,99.90
2023-03-20T18:46:20.942Z,99.90
2023-03-20T18:48:49.684Z,99.90
2023-03-20T18:51:17.714Z,99.90
2023-03-20T18:53:45.864Z,99.90
2023-03-20T18:56:15.962Z,99.90
2023-03-20T18:58:46.621Z,99.90
2023-03-20T19:01:16.024Z,99.90
2023-03-20T19:03:45.669Z,99.90
2023-03-20T19:06:15.730Z,99.90
2023-03-20T19:08:44.528Z,99.90
2023-03-20T19:11:17.344Z,99.90
2023-03-20T19:13:49.662Z,99.90
2023-03-20T19:16:23.416Z,99.90
2023-03-20T19:18:52.490Z,99.90
2023-03-20T19:21:25.837Z,99.90
2023-03-20T19:23:54.363Z,99.90
2023-03-20T19:26:24.557Z,99.90
2023-03-20T19:28:55.626Z,99.90
2023-03-20T19:31:24.676Z,99.90
2023-03-20T19:33:52.888Z,99.90
2023-03-20T19:36:27.786Z,99.90
2023-03-20T19:38:56.708Z,99.90
2023-03-20T19:41:24.816Z,99.90
2023-03-20T19:43:57.059Z,99.90
2023-03-20T19:46:42.733Z,99.90
2023-03-20T19:49:19.104Z,99.90
2023-03-20T19:51:47.920Z,99.90
2023-03-20T19:54:16.052Z,99.90
2023-03-20T19:56:44.080Z,99.90
2023-03-20T19:59:16.323Z,99.90
2023-03-20T20:01:45.921Z,99.90
2023-03-20T20:04:14.183Z,99.90
2023-03-20T20:06:42.148Z,99.90
2023-03-20T20:09:10.524Z,99.90
2023-03-20T20:11:38.581Z,99.90
2023-03-20T20:14:09.675Z,99.90
2023-03-20T20:16:42.381Z,99.90
2023-03-20T20:19:10.590Z,99.90
2023-03-20T20:24:26.876Z,99.90
2023-03-20T20:27:15.272Z,99.90
2023-03-20T20:29:44.304Z,99.90
2023-03-20T20:32:13.735Z,99.90
2023-03-20T20:40:21.136Z,99.90
2023-03-20T20:42:51.481Z,99.90
2023-03-20T20:45:20.791Z,99.90
2023-03-20T20:47:50.606Z,99.90
2023-03-20T20:50:21.264Z,99.90
2023-03-20T20:52:49.730Z,99.90
2023-03-20T20:55:22.988Z,99.90
2023-03-20T20:58:06.513Z,99.90
2023-03-20T21:00:48.981Z,99.90
2023-03-20T21:03:20.684Z,99.90
2023-03-20T21:05:48.749Z,99.90
2023-03-20T21:08:18.511Z,99.90
2023-03-20T21:10:46.896Z,99.90
2023-03-20T21:13:14.980Z,99.90
2023-03-20T21:15:43.830Z,99.90
2023-03-20T21:18:11.884Z,99.90
2023-03-20T21:20:41.144Z,99.90
2023-03-20T21:23:09.131Z,99.90
2023-03-20T21:25:40.963Z,99.90
2023-03-20T21:28:11.180Z,99.90
2023-03-20T21:30:46.765Z,99.90
2023-03-20T21:33:25.060Z,99.90
2023-03-20T21:35:54.755Z,99.90
2023-03-20T21:39:02.001Z,99.90
2023-03-20T21:41:11.737Z,99.90
2023-03-20T21:43:40.796Z,99.90
2023-03-20T21:49:46.501Z,99.90
2023-03-20T21:55:10.266Z,99.90
2023-03-20T22:03:10.363Z,99.90
2023-03-20T22:06:22.025Z,99.90
2023-03-20T22:09:38.397Z,99.90
2023-03-20T22:14:58.557Z,99.90
2023-03-20T22:17:48.624Z,99.90
2023-03-20T22:37:29.484Z,99.90
2023-03-20T22:40:24.842Z,99.90
2023-03-20T22:45:04.017Z,99.90
2023-03-20T22:47:32.834Z,99.90
2023-03-20T22:50:00.792Z,99.90
2023-03-20T22:52:45.588Z,99.90
2023-03-20T22:55:16.621Z,99.90
2023-03-20T22:57:59.882Z,99.90
2023-03-20T23:00:34.588Z,99.90
2023-03-20T23:03:17.217Z,99.90
2023-03-20T23:05:51.417Z,99.90
2023-03-20T23:08:19.359Z,99.90
2023-03-20T23:10:49.575Z,99.90
2023-03-20T23:13:20.417Z,99.90
2023-03-20T23:15:50.621Z,99.90
2023-03-20T23:18:18.716Z,99.90
2023-03-20T23:20:46.690Z,99.90
2023-03-20T23:23:14.678Z,99.90
2023-03-20T23:25:42.652Z,99.90
2023-03-20T23:28:11.255Z,99.90
2023-03-20T23:30:56.758Z,99.90
2023-03-20T23:33:28.625Z,99.90
2023-03-20T23:36:12.477Z,99.90
2023-03-20T23:38:44.524Z,99.90
2023-03-20T23:41:14.026Z,99.90
2023-03-20T23:43:42.361Z,99.90
2023-03-20T23:46:11.980Z,99.90
2023-03-20T23:48:41.005Z,99.90
2023-03-20T23:51:09.271Z,99.90
2023-03-20T23:53:37.274Z,99.90
2023-03-20T23:56:05.604Z,99.90
2023-03-20T23:58:34.777Z,99.90
